Allensville, Kentucky
Current Conditions -  °F | °C
As of 6:15 AM on Friday 19 Dec 2014 (Local Time) from KM91 Reporting Station
Overcast Overcast  
Wind Chill: 26°   Ceiling: 5000
Heat Index: 32°   Visibility: 10mi
Dew Point: 30°   Wind: 7mph
Humidity: 93%   Direction: 50°NE
Pressure: 30.24"   Gusts: NA
Location:  36.72°N, 87.07°W
Report Text: KM91 191215Z AUTO 05006KT 10SM OVC050 00/M01 A3024 RMK
Loading
Personal Weather Stations






























Interactive Weather Map New forecast layout! Learn more

10-Day Weather Forecast

Advertisements
Track Severe Weather on mobile